Flight Track Log - Related Links

Times and Time Zones

All times are in EDT time to prevent confusion due to time zone crossing. See the N9837L flight status page for this flight to view local times or setup timezone preferences in your user account.


Time Position Orientation Groundspeed Altitude Reporting Facility
EDT Latitude Longitude Course Direction KTS MPH feet Rate Location/Type
Fri 12:17:39 AM 43.1167 -78.9667 129° Southeast 64 74 1,400  Level Buffalo TRACON
Fri 12:18:09 AM 43.1167 -78.9667 129° Southeast 58 67 1,700 667 Climbing Buffalo TRACON
Fri 12:19:09 AM 43.1000 -78.9833 216° Southwest 91 105 2,400 650 Climbing Buffalo TRACON
Fri 12:20:09 AM 43.0833 -78.9500 124° Southeast 73 84 3,000 550 Climbing Buffalo TRACON
Fri 12:21:09 AM 43.0667 -78.9500 180° South 86 99 3,500 500 Climbing Buffalo TRACON
Fri 12:22:09 AM 43.0500 -78.9333 144° Southeast 85 98 4,000 500 Climbing Buffalo TRACON
Fri 12:23:00 AM 43.0134 -79.1151 129° Southeast  Level Estimated
Fri 12:23:09 AM 43.0167 -78.9333 180° South 85 98 4,500  Level Buffalo TRACON
Fri 12:24:09 AM 43.0000 -78.9167 144° Southeast 83 96 5,000 500 Climbing Buffalo TRACON
Fri 12:25:09 AM 42.9833 -78.9333 216° Southwest 89 102 5,500 491 Climbing Buffalo TRACON
Fri 12:25:59 AM 42.9636 -78.9519 215° Southwest 91 105 5,900 327 Climbing Cleveland Center
Fri 12:26:59 AM 42.9425 -78.9383 155° Southeast 86 99 6,100 50 Climbing Cleveland Center
Fri 12:27:59 AM 42.9153 -78.9278 164° South 96 110 6,000 -50 Descending Cleveland Center
Fri 12:28:59 AM 42.8836 -78.9114 159° South 101 116 6,000  Level Cleveland Center
Fri 12:29:59 AM 42.8564 -78.9008 164° South 106 122 6,000  Level Cleveland Center
Fri 12:30:59 AM 42.8292 -78.8875 160° South 106 122 6,000  Level Cleveland Center
Fri 12:31:59 AM 42.8039 -78.8769 163° South 106 122 6,000  Level Cleveland Center
Fri 12:32:59 AM 42.7769 -78.8833 190° South 106 122 6,000  Level Cleveland Center
Fri 12:33:59 AM 42.7567 -78.9233 235° Southwest 114 131 6,000  Level Cleveland Center
Fri 12:34:59 AM 42.7342 -78.9550 226° Southwest 119 137 6,000  Level Cleveland Center
Fri 12:35:59 AM 42.7119 -78.9867 226° Southwest 119 137 6,000  Level Cleveland Center
Fri 12:36:59 AM 42.6978 -79.0239 243° Southwest 125 144 6,000  Level Cleveland Center
Fri 12:37:59 AM 42.6711 -79.0556 221° Southwest 125 144 6,000  Level Cleveland Center
Fri 12:38:59 AM 42.6506 -79.0900 231° Southwest 119 137 6,000 50 Level Cleveland Center
Fri 12:39:59 AM 42.6239 -79.1158 215° Southwest 119 137 6,100  Climbing Cleveland Center
Fri 12:40:59 AM 42.6014 -79.1389 217° Southwest 119 137 6,000 -50 Descending Cleveland Center
Fri 12:41:59 AM 42.5786 -79.1678 223° Southwest 119 137 6,000 50 Level Cleveland Center
Fri 12:42:59 AM 42.5497 -79.1967 216° Southwest 119 137 6,100 50 Climbing Cleveland Center
Fri 12:43:59 AM 42.5294 -79.2308 231° Southwest 119 137 6,100  Level Cleveland Center
Fri 12:44:59 AM 42.5025 -79.2539 212° Southwest 119 137 6,100  Level Cleveland Center
Fri 12:45:59 AM 42.4864 -79.2853 235° Southwest 119 137 6,100  Level Cleveland Center
Fri 12:46:59 AM 42.4700 -79.3278 242° Southwest 124 143 6,100 -50 Level Cleveland Center
Fri 12:47:59 AM 42.4497 -79.3619 231° Southwest 124 143 6,000  Descending Cleveland Center
Fri 12:48:59 AM 42.4356 -79.4017 244° Southwest 119 137 6,100 50 Climbing Cleveland Center
Fri 12:49:59 AM 42.4211 -79.4383 242° Southwest 119 137 6,100 -50 Level Cleveland Center
Fri 12:50:59 AM 42.4028 -79.4753 236° Southwest 119 137 6,000 -50 Descending Cleveland Center
Fri 12:51:59 AM 42.3739 -79.5011 213° Southwest 125 144 6,000  Level Cleveland Center
Fri 12:52:59 AM 42.3511 -79.5297 223° Southwest 120 138 6,000  Level Cleveland Center
Fri 12:53:59 AM 42.3328 -79.5636 234° Southwest 114 131 6,000  Level Cleveland Center
Fri 12:54:59 AM 42.3206 -79.6031 247° West 120 138 6,000  Level Cleveland Center
Fri 12:55:59 AM 42.3106 -79.6456 252° West 120 138 6,000  Level Cleveland Center
Fri 12:56:59 AM 42.3006 -79.6878 252° West 120 138 6,000  Level Cleveland Center
Fri 12:57:59 AM 42.2925 -79.7300 256° West 120 138 6,000  Level Cleveland Center
Fri 12:58:59 AM 42.2739 -79.7611 231° Southwest 120 138 6,000  Level Cleveland Center
Fri 12:59:59 AM 42.2492 -79.7894 220° Southwest 120 138 6,000 50 Level Cleveland Center
Fri 01:00:59 AM 42.2306 -79.8317 239° Southwest 120 138 6,100 50 Climbing Cleveland Center
Fri 01:01:59 AM 42.2142 -79.8683 239° Southwest 120 138 6,100  Level Cleveland Center
Fri 01:02:59 AM 42.1978 -79.9050 239° Southwest 120 138 6,100  Level Cleveland Center
Fri 01:03:59 AM 42.1811 -79.9331 231° Southwest 120 138 6,100  Level Cleveland Center
Fri 01:04:59 AM 42.1606 -79.9697 233° Southwest 125 144 6,100  Level Cleveland Center
Fri 01:05:59 AM 42.1378 -80.0064 230° Southwest 120 138 6,100  Level Cleveland Center
Fri 01:06:59 AM 42.1214 -80.0372 234° Southwest 115 132 6,100 -50 Level Cleveland Center
Fri 01:07:59 AM 42.1131 -80.0822 256° West 115 132 6,000 -50 Descending Cleveland Center
Fri 01:08:59 AM 42.1028 -80.1186 249° West 121 139 6,000  Level Cleveland Center
Fri 01:09:59 AM 42.0822 -80.1608 237° Southwest 121 139 6,000  Level Cleveland Center
Fri 01:10:59 AM 42.0656 -80.1972 238° Southwest 116 133 6,000  Level Cleveland Center
Fri 01:11:59 AM 42.0469 -80.2281 231° Southwest 122 140 6,000 50 Level Cleveland Center
Fri 01:12:59 AM 42.0283 -80.2589 231° Southwest 122 140 6,100 50 Climbing Cleveland Center
Fri 01:13:59 AM 42.0181 -80.2981 251° West 122 140 6,100  Level Cleveland Center
Fri 01:14:59 AM 41.9953 -80.3344 230° Southwest 122 140 6,100  Level Cleveland Center
Fri 01:15:59 AM 41.9744 -80.3681 230° Southwest 122 140 6,100  Level Cleveland Center
Fri 01:16:59 AM 41.9514 -80.4044 230° Southwest 122 140 6,100  Level Cleveland Center
Fri 01:17:59 AM 41.9286 -80.4297 220° Southwest 122 140 6,100  Level Cleveland Center
Fri 01:18:59 AM 41.9100 -80.4717 239° Southwest 122 140 6,100  Level Cleveland Center
Fri 01:19:59 AM 41.8933 -80.5078 238° Southwest 122 140 6,100  Level Cleveland Center
Fri 01:20:59 AM 41.8725 -80.5442 232° Southwest 122 140 6,100  Level Cleveland Center
Fri 01:21:59 AM 41.8558 -80.5803 238° Southwest 122 140 6,100  Level Cleveland Center
Fri 01:22:59 AM 41.8328 -80.6139 227° Southwest 122 140 6,100 -50 Level Cleveland Center
Fri 01:23:59 AM 41.8142 -80.6500 235° Southwest 122 140 6,000 -50 Descending Cleveland Center
Fri 01:24:59 AM 41.7931 -80.6889 234° Southwest 122 140 6,000 -50 Level Cleveland Center
Fri 01:25:59 AM 41.7744 -80.7250 235° Southwest 122 140 5,900  Descending Cleveland Center
Fri 01:26:59 AM 41.7617 -80.7669 248° West 122 140 6,000 100 Climbing Cleveland Center
Fri 01:27:59 AM 41.7533 -80.8086 255° West 122 140 6,100 50 Climbing Cleveland Center
Fri 01:28:59 AM 41.7469 -80.8503 258° West 122 140 6,100 -50 Level Cleveland Center
Fri 01:29:59 AM 41.7406 -80.8947 259° West 122 140 6,000 -50 Descending Cleveland Center
Fri 01:30:59 AM 41.7342 -80.9392 259° West 122 140 6,000  Level Cleveland Center
Fri 01:31:59 AM 41.7319 -80.9839 266° West 122 140 6,000 -200 Level Cleveland Center
Fri 01:32:59 AM 41.7236 -81.0311 257° West 122 140 5,600 -450 Descending Cleveland Center
Fri 01:33:59 AM 41.7131 -81.0728 251° West 127 146 5,100 -450 Descending Cleveland Center
Fri 01:34:59 AM 41.7022 -81.1228 254° West 127 146 4,700 -420 Descending Cleveland Center
Fri 01:36:22 AM 41.6894 -81.1781 253° West 113 130 4,100 -417 Descending Cleveland Center
Fri 01:37:23 AM 41.6811 -81.2169 254° West 111 128 3,700 -397 Descending Cleveland Center
Fri 01:38:23 AM 41.6744 -81.2586 258° West 106 122 3,300 -298 Descending Cleveland Center
Fri 01:39:24 AM 41.6700 -81.2975 261° West 110 127 3,100 -198 Descending Cleveland Center
Fri 01:40:24 AM 41.6636 -81.3364 258° West 114 131 2,900 -99 Descending Cleveland Center
Fri 01:41:25 AM 41.6550 -81.3753 254° West 113 130 2,900  Level Cleveland Center
Fri 01:42:38 AM 41.6400 -81.4222 247° West 112 129 2,900 -45 Level Cleveland Center
Fri 01:43:38 AM 41.6211 -81.4608 237° Southwest 117 135 2,800 -198 Descending Cleveland Center
Fri 01:44:39 AM 41.6039 -81.4994 239° Southwest 123 142 2,500 -188 Descending Cleveland Center
Fri 01:45:46 AM 41.5850 -81.5381 237° Southwest 116 133 2,400 -94 Descending Cleveland Center
Fri 01:46:46 AM 41.5639 -81.5739 232° Southwest 111 128 2,300 -298 Descending Cleveland Center
Fri 01:47:47 AM 41.5508 -81.6125 246° West 115 132 1,800 -496 Descending Cleveland Center
Fri 01:48:47 AM 41.5361 -81.6511 243° Southwest 108 124 1,300 -298 Descending Cleveland Center
Fri 01:49:48 AM 41.5272 -81.6842 250° West 98 113 1,200  Descending Cleveland Center
Fri 01:50:49 AM 41.5144 -81.7172 243° Southwest 100 115 1,300 98 Climbing Cleveland Center
Fri 01:52:00 AM 41.5175 -81.6833 North  Level Estimated

Login

Don't have an account? Register now (free) for customized features, flight alerts, and more!